createdAt,value
2018-07-01T00:00:18.787Z,25.53
2018-07-01T00:02:47.545Z,25.23
2018-07-01T00:05:16.298Z,18.10
2018-07-01T00:07:45.089Z,29.40
2018-07-01T00:10:13.827Z,19.47
2018-07-01T00:12:42.595Z,21.43
2018-07-01T00:15:11.319Z,25.60
2018-07-01T00:17:40.027Z,29.60
2018-07-01T00:20:09.770Z,29.37
2018-07-01T00:22:38.977Z,40.63
2018-07-01T00:25:08.017Z,30.77
2018-07-01T00:27:36.734Z,39.53
2018-07-01T00:30:06.428Z,25.40
2018-07-01T00:32:35.249Z,41.63
2018-07-01T00:35:03.998Z,35.83
2018-07-01T00:37:32.737Z,35.93
2018-07-01T00:40:01.480Z,39.87
2018-07-01T00:42:30.187Z,30.33
2018-07-01T00:44:58.922Z,24.50
2018-07-01T00:47:27.654Z,28.93
2018-07-01T00:49:56.423Z,23.60
2018-07-01T00:52:25.162Z,24.33
2018-07-01T00:54:53.953Z,28.70
2018-07-01T00:57:22.696Z,23.20
2018-07-01T00:59:51.393Z,20.33
2018-07-01T01:02:20.152Z,32.03
2018-07-01T01:04:48.884Z,27.63
2018-07-01T01:07:17.605Z,21.30
2018-07-01T01:09:46.326Z,24.57
2018-07-01T01:12:15.049Z,25.43
2018-07-01T01:14:43.934Z,17.63
2018-07-01T01:17:12.700Z,34.57
2018-07-01T01:19:41.454Z,28.27
2018-07-01T01:22:10.182Z,17.87
2018-07-01T01:24:38.917Z,29.50
2018-07-01T01:27:07.632Z,20.70
2018-07-01T01:29:36.403Z,20.63
2018-07-01T01:32:05.254Z,31.20
2018-07-01T01:34:34.061Z,20.47
2018-07-01T01:37:02.882Z,15.73
2018-07-01T01:39:34.284Z,25.97
2018-07-01T01:43:05.225Z,20.63
2018-07-01T01:45:48.677Z,24.00
2018-07-01T01:48:23.984Z,16.00
2018-07-01T01:51:04.990Z,20.10
2018-07-01T01:53:37.541Z,19.00
2018-07-01T01:56:14.202Z,28.17
2018-07-01T01:58:48.438Z,26.43
2018-07-01T02:01:22.285Z,23.07
2018-07-01T02:03:57.507Z,22.23
2018-07-01T02:06:29.861Z,18.37
2018-07-01T02:09:01.700Z,21.63
2018-07-01T02:11:31.760Z,54.43
2018-07-01T02:14:04.458Z,40.83
2018-07-01T02:16:38.266Z,19.50
2018-07-01T02:19:07.105Z,24.63
2018-07-01T02:21:35.922Z,23.07
2018-07-01T02:24:13.873Z,37.80
2018-07-01T02:26:42.699Z,23.20
2018-07-01T02:29:11.506Z,29.20
2018-07-01T02:31:40.259Z,24.73
2018-07-01T02:34:09.008Z,12.43
2018-07-01T02:36:37.767Z,13.33
2018-07-01T02:39:08.394Z,20.10
2018-07-01T02:41:37.211Z,19.57
2018-07-01T02:44:06.004Z,20.33
2018-07-01T02:46:34.749Z,27.13
2018-07-01T02:49:04.020Z,29.43
2018-07-01T02:51:32.798Z,24.47
2018-07-01T02:54:01.570Z,17.43
2018-07-01T02:56:30.399Z,20.30
2018-07-01T02:58:59.154Z,32.37
2018-07-01T03:01:27.941Z,34.17
2018-07-01T03:03:56.654Z,19.67
2018-07-01T03:06:25.418Z,22.33
2018-07-01T03:08:54.286Z,13.97
2018-07-01T03:11:22.990Z,18.13
2018-07-01T03:13:51.737Z,21.13
2018-07-01T03:16:20.477Z,28.63
2018-07-01T03:18:49.227Z,13.97
2018-07-01T03:21:17.973Z,23.47
2018-07-01T03:23:46.802Z,16.10
2018-07-01T03:26:15.566Z,15.33
2018-07-01T03:28:44.311Z,10.20
2018-07-01T03:31:13.095Z,25.03
2018-07-01T03:33:41.861Z,13.50
2018-07-01T03:36:10.576Z,13.50
2018-07-01T03:38:39.313Z,13.63
2018-07-01T03:41:08.193Z,23.83
2018-07-01T03:43:36.963Z,15.23
2018-07-01T03:46:05.900Z,15.30
2018-07-01T03:48:34.633Z,13.60
2018-07-01T03:51:03.378Z,23.17
2018-07-01T03:53:32.097Z,17.23
2018-07-01T03:56:00.915Z,8.60
2018-07-01T03:58:29.735Z,9.13
2018-07-01T04:00:58.563Z,20.37
2018-07-01T04:03:27.303Z,7.03
2018-07-01T04:05:56.059Z,10.87
2018-07-01T04:08:24.934Z,12.57
2018-07-01T04:10:53.681Z,11.20
2018-07-01T04:13:22.426Z,17.23
2018-07-01T04:15:51.166Z,6.33
2018-07-01T04:18:19.891Z,23.93
2018-07-01T04:20:48.610Z,6.53
2018-07-01T04:23:17.341Z,7.70
2018-07-01T04:25:46.086Z,27.00
2018-07-01T04:28:14.874Z,12.10
2018-07-01T04:30:43.614Z,16.00
2018-07-01T04:33:12.357Z,9.70
2018-07-01T04:35:41.265Z,19.87
2018-07-01T04:38:10.050Z,8.83
2018-07-01T04:40:38.800Z,13.17
2018-07-01T04:43:07.530Z,8.50
2018-07-01T04:45:36.255Z,26.30
2018-07-01T04:48:04.980Z,16.20
2018-07-01T04:50:33.717Z,9.17
2018-07-01T04:53:02.526Z,5.07
2018-07-01T04:55:31.265Z,6.90
2018-07-01T04:58:00.024Z,9.33
2018-07-01T05:00:28.780Z,10.93
2018-07-01T05:02:57.556Z,6.93
2018-07-01T05:05:26.352Z,10.07
2018-07-01T05:07:55.373Z,6.80
2018-07-01T05:10:24.166Z,9.13
2018-07-01T05:12:52.946Z,5.00
2018-07-01T05:15:22.005Z,7.20
2018-07-01T05:17:50.798Z,7.50
2018-07-01T05:20:19.554Z,2.60
2018-07-01T05:22:48.303Z,6.67
2018-07-01T05:25:17.095Z,7.23
2018-07-01T05:27:45.834Z,3.70
2018-07-01T05:30:14.585Z,15.50
2018-07-01T05:32:43.333Z,4.63
2018-07-01T05:35:12.083Z,1.90
2018-07-01T05:37:40.850Z,6.13
2018-07-01T05:40:09.577Z,6.90
2018-07-01T05:42:38.308Z,6.67
2018-07-01T05:45:07.088Z,6.53
2018-07-01T05:47:35.910Z,3.73
2018-07-01T05:50:05.114Z,3.60
2018-07-01T05:52:33.906Z,5.70
2018-07-01T05:55:02.650Z,6.83
2018-07-01T05:57:31.410Z,15.00
2018-07-01T06:00:00.172Z,7.37
2018-07-01T06:02:28.953Z,6.63
2018-07-01T06:04:57.684Z,2.57
2018-07-01T06:07:26.418Z,5.67
2018-07-01T06:09:55.143Z,3.77
2018-07-01T06:12:23.878Z,7.00
2018-07-01T06:14:52.601Z,4.17
2018-07-01T06:17:21.454Z,5.87
2018-07-01T06:19:50.167Z,2.50
2018-07-01T06:22:18.869Z,2.93
2018-07-01T06:24:47.654Z,2.60
2018-07-01T06:27:16.456Z,5.17
2018-07-01T06:29:45.497Z,2.20
2018-07-01T06:32:14.291Z,2.27
2018-07-01T06:34:43.017Z,5.53
2018-07-01T06:37:11.805Z,11.80
2018-07-01T06:39:40.594Z,4.77
2018-07-01T06:42:09.718Z,3.53
2018-07-01T06:44:38.465Z,19.57
2018-07-01T06:47:07.203Z,5.47
2018-07-01T06:49:36.153Z,15.77
2018-07-01T06:52:04.910Z,2.10
2018-07-01T06:54:34.268Z,2.97
2018-07-01T06:57:03.034Z,6.83
2018-07-01T06:59:31.771Z,4.10
2018-07-01T07:02:00.521Z,6.23
2018-07-01T07:04:29.305Z,1.67
2018-07-01T07:06:58.048Z,4.50
2018-07-01T07:09:26.778Z,7.43
2018-07-01T07:11:55.532Z,2.30
2018-07-01T07:14:24.763Z,7.97
2018-07-01T07:16:54.012Z,4.57
2018-07-01T07:19:23.309Z,6.10
2018-07-01T07:21:52.041Z,5.67
2018-07-01T07:24:20.758Z,2.83
2018-07-01T07:26:49.499Z,3.80
2018-07-01T07:29:18.282Z,3.60
2018-07-01T07:31:47.077Z,2.47
2018-07-01T07:34:15.832Z,2.13
2018-07-01T07:36:44.552Z,5.17
2018-07-01T07:39:13.355Z,6.53
2018-07-01T07:41:42.386Z,2.70
2018-07-01T07:44:11.126Z,3.33
2018-07-01T07:46:39.834Z,2.27
2018-07-01T07:49:08.590Z,8.83
2018-07-01T07:51:37.296Z,6.00
2018-07-01T07:54:06.035Z,5.13
2018-07-01T07:56:34.785Z,4.23
2018-07-01T07:59:03.538Z,5.50
2018-07-01T08:01:32.300Z,4.30
2018-07-01T08:04:01.078Z,7.30
2018-07-01T08:06:29.821Z,2.30
2018-07-01T08:08:58.558Z,3.30
2018-07-01T08:11:27.330Z,6.20
2018-07-01T08:13:56.013Z,3.67
2018-07-01T08:16:24.731Z,13.70
2018-07-01T08:18:53.511Z,5.00
2018-07-01T08:21:22.240Z,5.40
2018-07-01T08:23:50.973Z,4.60
2018-07-01T08:26:19.705Z,3.40
2018-07-01T08:28:48.445Z,3.33
2018-07-01T08:31:17.168Z,3.80
2018-07-01T08:33:45.891Z,9.17
2018-07-01T08:36:14.859Z,2.73
2018-07-01T08:38:43.580Z,4.00
2018-07-01T08:41:12.286Z,7.83
2018-07-01T08:43:41.034Z,2.10
2018-07-01T08:46:09.743Z,5.53
2018-07-01T08:48:39.789Z,1.60
2018-07-01T08:51:08.589Z,9.23
2018-07-01T08:53:37.320Z,4.57
2018-07-01T08:56:06.270Z,5.20
2018-07-01T08:58:34.994Z,2.50
2018-07-01T09:01:03.805Z,5.40
2018-07-01T09:03:32.669Z,2.57
2018-07-01T09:06:01.511Z,3.03
2018-07-01T09:08:30.253Z,2.53
2018-07-01T09:10:58.965Z,3.70
2018-07-01T09:13:27.667Z,3.30
2018-07-01T09:15:56.402Z,5.40
2018-07-01T09:18:25.089Z,1.80
2018-07-01T09:20:53.834Z,5.20
2018-07-01T09:23:22.583Z,2.70
2018-07-01T09:25:51.280Z,2.63
2018-07-01T09:28:19.999Z,7.07
2018-07-01T09:30:48.726Z,12.93
2018-07-01T09:33:18.369Z,1.87
2018-07-01T09:35:47.094Z,3.53
2018-07-01T09:38:15.829Z,2.70
2018-07-01T09:40:44.545Z,2.97
2018-07-01T09:43:13.281Z,6.73
2018-07-01T09:45:42.089Z,6.00
2018-07-01T09:48:10.833Z,13.43
2018-07-01T09:50:39.559Z,7.47
2018-07-01T09:53:08.258Z,5.33
2018-07-01T09:55:36.994Z,5.13
2018-07-01T09:58:05.689Z,5.00
2018-07-01T10:00:34.474Z,3.40
2018-07-01T10:03:03.212Z,28.57
2018-07-01T10:05:31.914Z,1.90
2018-07-01T10:08:00.642Z,7.60
2018-07-01T10:10:29.341Z,1.87
2018-07-01T10:12:58.058Z,2.87
2018-07-01T10:15:26.862Z,4.50
2018-07-01T10:17:55.629Z,1.57
2018-07-01T10:20:24.357Z,6.03
2018-07-01T10:22:53.208Z,5.87
2018-07-01T10:25:21.929Z,3.93
2018-07-01T10:27:50.686Z,2.30
2018-07-01T10:30:19.441Z,2.90
2018-07-01T10:32:48.327Z,4.80
2018-07-01T10:35:17.029Z,7.10
2018-07-01T10:37:45.750Z,4.22
2018-07-01T10:40:14.506Z,5.07
2018-07-01T10:42:43.230Z,6.93
2018-07-01T10:45:11.929Z,1.90
2018-07-01T10:47:40.638Z,9.38
2018-07-01T10:50:09.325Z,3.17
2018-07-01T10:52:38.033Z,2.83
2018-07-01T10:55:06.721Z,1.57
2018-07-01T10:57:35.426Z,8.13
2018-07-01T11:00:04.203Z,1.20
2018-07-01T11:02:33.399Z,2.33
2018-07-01T11:05:02.640Z,1.33
2018-07-01T11:07:31.366Z,1.50
2018-07-01T11:10:00.179Z,3.83
2018-07-01T11:12:28.897Z,4.20
2018-07-01T11:14:57.606Z,11.53
2018-07-01T11:17:26.341Z,2.12
2018-07-01T11:19:55.042Z,5.67
2018-07-01T11:22:23.758Z,3.00
2018-07-01T11:24:52.461Z,1.90
2018-07-01T11:27:21.228Z,1.22
2018-07-01T11:29:49.984Z,1.40
2018-07-01T11:32:18.840Z,1.20
2018-07-01T11:34:47.558Z,4.03
2018-07-01T11:37:16.285Z,9.23
2018-07-01T11:39:45.039Z,7.23
2018-07-01T11:42:13.794Z,6.53
2018-07-01T11:44:42.563Z,2.00
2018-07-01T11:47:11.233Z,3.50
2018-07-01T11:49:39.946Z,6.97
2018-07-01T11:52:08.879Z,3.20
2018-07-01T11:54:37.616Z,3.57
2018-07-01T11:57:06.305Z,3.03
2018-07-01T11:59:35.013Z,8.47
2018-07-01T12:02:03.747Z,2.47
2018-07-01T12:04:32.454Z,3.70
2018-07-01T12:07:01.168Z,2.70
2018-07-01T12:09:29.917Z,1.77
2018-07-01T12:11:58.698Z,1.90
2018-07-01T12:14:27.439Z,7.83
2018-07-01T12:16:57.599Z,7.90
2018-07-01T12:19:26.338Z,5.60
2018-07-01T12:21:55.512Z,5.33
2018-07-01T12:24:24.452Z,9.63
2018-07-01T12:26:53.290Z,3.40
2018-07-01T12:29:21.998Z,2.50
2018-07-01T12:31:50.736Z,4.50
2018-07-01T12:34:19.479Z,6.03
2018-07-01T12:36:48.271Z,15.93
2018-07-01T12:39:17.018Z,2.90
2018-07-01T12:41:45.743Z,3.90
2018-07-01T12:44:14.488Z,1.53
2018-07-01T12:46:43.206Z,6.83
2018-07-01T12:49:11.893Z,16.80
2018-07-01T12:51:40.661Z,4.17
2018-07-01T12:54:09.382Z,1.73
2018-07-01T12:56:38.159Z,18.33
2018-07-01T12:59:06.854Z,3.10
2018-07-01T13:01:35.565Z,7.57
2018-07-01T13:04:04.277Z,3.77
2018-07-01T13:06:32.965Z,5.20
2018-07-01T13:09:01.699Z,1.53
2018-07-01T13:11:30.430Z,6.43
2018-07-01T13:13:59.161Z,5.77
2018-07-01T13:16:27.870Z,4.80
2018-07-01T13:18:56.634Z,5.13
2018-07-01T13:21:25.378Z,2.40
2018-07-01T13:23:54.152Z,2.30
2018-07-01T13:26:22.848Z,4.20
2018-07-01T13:28:51.587Z,4.73
2018-07-01T13:31:20.388Z,10.83
2018-07-01T13:33:49.139Z,4.73
2018-07-01T13:36:17.915Z,3.03
2018-07-01T13:38:46.654Z,2.80
2018-07-01T13:41:15.367Z,8.20
2018-07-01T13:43:44.173Z,2.60
2018-07-01T13:46:13.253Z,4.93
2018-07-01T13:48:42.546Z,3.10
2018-07-01T13:51:11.586Z,9.93
2018-07-01T13:53:40.781Z,2.17
2018-07-01T13:56:09.852Z,3.40
2018-07-01T13:58:38.979Z,8.07
2018-07-01T14:01:08.200Z,7.00
2018-07-01T14:03:37.335Z,2.40
2018-07-01T14:06:06.603Z,4.80
2018-07-01T14:08:35.644Z,5.40
2018-07-01T14:11:04.829Z,7.40
2018-07-01T14:13:34.038Z,10.33
2018-07-01T14:16:03.247Z,1.83
2018-07-01T14:18:32.604Z,4.20
2018-07-01T14:21:01.826Z,12.03
2018-07-01T14:23:30.926Z,2.17
2018-07-01T14:26:00.165Z,2.87
2018-07-01T14:28:29.323Z,4.93
2018-07-01T14:30:59.057Z,3.47
2018-07-01T14:33:28.827Z,5.83
2018-07-01T14:35:57.526Z,4.60
2018-07-01T14:38:26.249Z,3.00
2018-07-01T14:40:54.997Z,5.53
2018-07-01T14:43:23.950Z,5.47
2018-07-01T14:45:52.843Z,3.30
2018-07-01T14:48:21.614Z,4.40
2018-07-01T14:50:50.329Z,4.30
2018-07-01T14:53:19.424Z,2.30
2018-07-01T14:55:48.228Z,2.50
2018-07-01T14:58:16.982Z,9.20
2018-07-01T15:00:45.721Z,2.70
2018-07-01T15:03:15.233Z,11.87
2018-07-01T15:05:45.597Z,4.10
2018-07-01T15:08:14.349Z,5.70
2018-07-01T15:10:44.282Z,2.10
2018-07-01T15:13:13.787Z,8.37
2018-07-01T15:15:42.515Z,2.50
2018-07-01T15:18:11.789Z,3.63
2018-07-01T15:20:41.438Z,3.20
2018-07-01T15:23:12.131Z,3.83
2018-07-01T15:25:42.184Z,2.10
2018-07-01T15:28:12.482Z,5.20
2018-07-01T15:30:42.594Z,7.53
2018-07-01T15:33:11.295Z,5.00
2018-07-01T15:35:39.998Z,8.57
2018-07-01T15:38:08.753Z,4.70
2018-07-01T15:40:37.617Z,3.30
2018-07-01T15:43:07.150Z,9.93
2018-07-01T15:45:36.351Z,4.40
2018-07-01T15:48:06.155Z,7.43
2018-07-01T15:50:36.059Z,13.57
2018-07-01T15:53:07.542Z,2.77
2018-07-01T15:55:36.891Z,6.00
2018-07-01T15:58:05.746Z,12.90
2018-07-01T16:00:34.471Z,6.43
2018-07-01T16:03:03.182Z,2.83
2018-07-01T16:05:31.934Z,15.33
2018-07-01T16:08:02.469Z,6.30
2018-07-01T16:10:31.467Z,11.43
2018-07-01T16:13:00.241Z,3.63
2018-07-01T16:15:29.126Z,5.30
2018-07-01T16:17:58.183Z,3.97
2018-07-01T16:20:26.912Z,4.80
2018-07-01T16:22:56.790Z,5.03
2018-07-01T16:25:30.657Z,6.10
2018-07-01T16:28:04.699Z,5.10
2018-07-01T16:30:33.757Z,8.97
2018-07-01T16:33:04.035Z,4.23
2018-07-01T16:35:33.805Z,9.37
2018-07-01T16:38:04.523Z,4.40
2018-07-01T16:40:34.737Z,7.20
2018-07-01T16:43:03.476Z,5.50
2018-07-01T16:45:32.211Z,8.37
2018-07-01T16:48:01.055Z,2.30
2018-07-01T16:50:29.885Z,3.43
2018-07-01T16:52:58.685Z,19.00
2018-07-01T16:55:27.614Z,32.47
2018-07-01T16:57:56.378Z,4.37
2018-07-01T17:00:25.169Z,4.67
2018-07-01T17:02:53.906Z,2.30
2018-07-01T17:05:22.692Z,10.83
2018-07-01T17:07:51.713Z,7.63
2018-07-01T17:10:20.458Z,5.00
2018-07-01T17:12:49.151Z,17.83
2018-07-01T17:15:17.857Z,12.70
2018-07-01T17:17:46.596Z,4.40
2018-07-01T17:20:15.292Z,4.40
2018-07-01T17:22:44.017Z,9.10
2018-07-01T17:25:12.733Z,6.80
2018-07-01T17:27:41.440Z,13.30
2018-07-01T17:30:10.279Z,35.77
2018-07-01T17:32:44.265Z,20.17
2018-07-01T17:35:12.990Z,18.00
2018-07-01T17:37:41.718Z,20.13
2018-07-01T17:40:10.482Z,19.53
2018-07-01T17:42:39.197Z,10.27
2018-07-01T17:45:08.071Z,16.07
2018-07-01T17:47:36.901Z,10.83
2018-07-01T17:50:05.661Z,9.67
2018-07-01T17:52:34.404Z,22.30
2018-07-01T17:55:02.077Z,5.33
2018-07-01T17:57:30.817Z,15.13
2018-07-01T17:59:59.816Z,10.07
2018-07-01T18:02:28.566Z,5.00
2018-07-01T18:04:57.317Z,6.00
2018-07-01T18:07:26.057Z,14.30
2018-07-01T18:09:55.451Z,20.80
2018-07-01T18:12:24.415Z,7.80
2018-07-01T18:14:53.731Z,13.70
2018-07-01T18:17:22.532Z,6.63
2018-07-01T18:19:51.481Z,7.67
2018-07-01T18:22:44.113Z,10.10
2018-07-01T18:25:04.497Z,7.10
2018-07-01T18:27:19.040Z,17.80
2018-07-01T18:29:48.357Z,9.50
2018-07-01T18:32:17.161Z,10.77
2018-07-01T18:34:46.498Z,21.17
2018-07-01T18:37:15.879Z,18.57
2018-07-01T18:39:44.712Z,2.60
2018-07-01T18:42:13.662Z,8.13
2018-07-01T18:44:42.497Z,7.30
2018-07-01T18:47:11.242Z,2.93
2018-07-01T18:49:39.981Z,13.63
2018-07-01T18:52:08.733Z,5.70
2018-07-01T18:54:37.543Z,3.57
2018-07-01T18:57:06.362Z,8.93
2018-07-01T18:59:35.129Z,14.47
2018-07-01T19:02:03.957Z,7.13
2018-07-01T19:04:32.745Z,14.80
2018-07-01T19:07:01.618Z,3.73
2018-07-01T19:09:30.373Z,6.73
2018-07-01T19:12:00.253Z,14.20
2018-07-01T19:14:29.141Z,22.63
2018-07-01T19:16:58.103Z,22.73
2018-07-01T19:19:26.917Z,20.07
2018-07-01T19:21:55.785Z,4.70
2018-07-01T19:24:24.729Z,14.60
2018-07-01T19:26:53.865Z,13.13
2018-07-01T19:29:22.692Z,17.53
2018-07-01T19:31:51.541Z,5.70
2018-07-01T19:34:20.883Z,19.87
2018-07-01T19:36:49.770Z,9.13
2018-07-01T19:39:18.698Z,10.20
2018-07-01T19:41:47.616Z,4.53
2018-07-01T19:44:16.474Z,7.73
2018-07-01T19:46:45.499Z,5.73
2018-07-01T19:49:14.332Z,8.27
2018-07-01T19:51:43.210Z,10.30
2018-07-01T19:54:12.002Z,20.87
2018-07-01T19:56:40.788Z,6.87
2018-07-01T19:59:09.564Z,8.10
2018-07-01T20:01:38.429Z,13.20
2018-07-01T20:04:07.177Z,4.57
2018-07-01T20:06:36.064Z,10.50
2018-07-01T20:09:06.632Z,7.23
2018-07-01T20:11:35.662Z,5.60
2018-07-01T20:14:04.589Z,15.77
2018-07-01T20:16:33.300Z,8.93
2018-07-01T20:19:02.049Z,20.00
2018-07-01T20:21:30.964Z,10.03
2018-07-01T20:23:59.848Z,8.20
2018-07-01T20:26:28.639Z,14.90
2018-07-01T20:28:57.704Z,14.83
2018-07-01T20:31:26.457Z,11.73
2018-07-01T20:33:55.215Z,7.33
2018-07-01T20:36:24.166Z,7.33
2018-07-01T20:38:53.460Z,8.83
2018-07-01T20:41:23.057Z,4.37
2018-07-01T20:43:53.269Z,7.70
2018-07-01T20:46:23.105Z,7.07
2018-07-01T20:48:51.847Z,16.00
2018-07-01T20:51:20.562Z,10.87
2018-07-01T20:53:49.266Z,5.30
2018-07-01T20:56:18.087Z,7.20
2018-07-01T20:58:46.801Z,12.93
2018-07-01T21:01:15.555Z,6.87
2018-07-01T21:03:44.307Z,8.70
2018-07-01T21:06:13.042Z,4.03
2018-07-01T21:08:41.784Z,6.47
2018-07-01T21:11:10.504Z,10.13
2018-07-01T21:13:39.233Z,5.77
2018-07-01T21:16:07.955Z,7.50
2018-07-01T21:18:36.662Z,16.33
2018-07-01T21:21:05.487Z,17.37
2018-07-01T21:23:34.340Z,17.87
2018-07-01T21:26:03.071Z,8.13
2018-07-01T21:28:31.809Z,9.63
2018-07-01T21:31:00.533Z,6.07
2018-07-01T21:33:29.278Z,6.93
2018-07-01T21:35:58.508Z,8.63
2018-07-01T21:38:27.294Z,19.63
2018-07-01T21:40:56.037Z,15.10
2018-07-01T21:43:24.795Z,6.10
2018-07-01T21:45:53.550Z,10.00
2018-07-01T21:48:22.320Z,13.37
2018-07-01T21:50:51.044Z,4.90
2018-07-01T21:53:19.816Z,6.23
2018-07-01T21:55:48.713Z,15.63
2018-07-01T21:58:17.424Z,4.83
2018-07-01T22:00:46.162Z,22.40
2018-07-01T22:03:14.874Z,13.30
2018-07-01T22:05:43.646Z,6.20
2018-07-01T22:08:12.381Z,7.57
2018-07-01T22:10:52.218Z,12.87
2018-07-01T22:14:37.625Z,10.50
2018-07-01T22:17:08.540Z,8.40
2018-07-01T22:19:37.614Z,22.37
2018-07-01T22:22:06.426Z,6.83
2018-07-01T22:24:36.425Z,6.27
2018-07-01T22:27:05.414Z,10.83
2018-07-01T22:29:34.422Z,8.83
2018-07-01T22:32:03.197Z,11.97
2018-07-01T22:34:31.934Z,9.63
2018-07-01T22:37:00.704Z,10.00
2018-07-01T22:39:30.531Z,12.83
2018-07-01T22:42:00.497Z,7.23
2018-07-01T22:44:29.809Z,11.37
2018-07-01T22:46:58.564Z,7.23
2018-07-01T22:49:27.295Z,8.53
2018-07-01T22:51:56.061Z,11.50
2018-07-01T22:54:24.809Z,12.30
2018-07-01T22:56:53.553Z,5.50
2018-07-01T22:59:22.326Z,7.53
2018-07-01T23:03:02.692Z,11.73
2018-07-01T23:05:31.523Z,11.60
2018-07-01T23:08:00.287Z,20.03
2018-07-01T23:10:29.768Z,13.67
2018-07-01T23:12:59.164Z,9.17
2018-07-01T23:15:27.926Z,11.00
2018-07-01T23:17:56.669Z,12.43
2018-07-01T23:20:25.410Z,6.23
2018-07-01T23:22:54.216Z,13.50
2018-07-01T23:25:23.085Z,6.90
2018-07-01T23:27:51.826Z,7.40
2018-07-01T23:30:20.590Z,6.03
2018-07-01T23:32:49.318Z,4.60
2018-07-01T23:35:18.052Z,4.37
2018-07-01T23:37:46.825Z,8.37
2018-07-01T23:40:15.550Z,4.40
2018-07-01T23:42:44.344Z,5.83
2018-07-01T23:45:14.456Z,8.03
2018-07-01T23:47:43.489Z,6.30
2018-07-01T23:50:12.238Z,10.07
2018-07-01T23:52:40.977Z,7.10
2018-07-01T23:55:10.158Z,12.63
2018-07-01T23:57:38.962Z,6.57
